createdAt,value
2018-03-27T00:00:27.184Z,24.13
2018-03-27T00:02:54.814Z,22.50
2018-03-27T00:05:22.436Z,23.63
2018-03-27T00:07:50.062Z,27.53
2018-03-27T00:10:17.671Z,21.63
2018-03-27T00:12:45.371Z,23.83
2018-03-27T00:15:12.966Z,21.70
2018-03-27T00:17:40.587Z,20.50
2018-03-27T00:20:08.197Z,22.00
2018-03-27T00:22:35.832Z,25.47
2018-03-27T00:25:03.438Z,26.03
2018-03-27T00:27:42.736Z,25.17
2018-03-27T00:30:22.044Z,26.10
2018-03-27T00:33:01.555Z,22.87
2018-03-27T00:35:40.999Z,21.30
2018-03-27T00:38:20.368Z,25.00
2018-03-27T00:40:47.423Z,23.33
2018-03-27T00:43:15.052Z,25.17
2018-03-27T00:45:42.686Z,24.40
2018-03-27T00:48:10.305Z,24.57
2018-03-27T00:50:37.994Z,26.20
2018-03-27T00:53:05.591Z,24.90
2018-03-27T00:55:33.219Z,25.83
2018-03-27T00:58:00.817Z,27.40
2018-03-27T01:00:28.442Z,26.43
2018-03-27T01:02:56.032Z,23.27
2018-03-27T01:05:23.668Z,27.67
2018-03-27T01:07:51.254Z,27.53
2018-03-27T01:10:18.889Z,25.00
2018-03-27T01:12:46.532Z,24.03
2018-03-27T01:15:14.146Z,25.40
2018-03-27T01:17:42.258Z,25.70
2018-03-27T01:20:09.904Z,26.50
2018-03-27T01:22:37.630Z,29.87
2018-03-27T01:25:05.267Z,23.10
2018-03-27T01:27:32.883Z,29.60
2018-03-27T01:30:00.510Z,29.57
2018-03-27T01:32:28.102Z,28.63
2018-03-27T01:34:55.697Z,29.67
2018-03-27T01:37:23.335Z,31.00
2018-03-27T01:39:50.969Z,29.10
2018-03-27T01:42:18.604Z,32.77
2018-03-27T01:44:46.202Z,28.07
2018-03-27T01:47:13.829Z,30.80
2018-03-27T01:49:41.417Z,28.27
2018-03-27T01:52:09.047Z,29.83
2018-03-27T01:54:36.651Z,29.13
2018-03-27T01:57:04.299Z,29.50
2018-03-27T01:59:31.891Z,28.80
2018-03-27T02:01:59.539Z,31.60
2018-03-27T02:04:27.179Z,31.70
2018-03-27T02:06:54.815Z,35.90
2018-03-27T02:09:22.458Z,31.97
2018-03-27T02:11:55.756Z,30.20
2018-03-27T02:14:28.775Z,28.03
2018-03-27T02:17:01.988Z,28.97
2018-03-27T02:19:34.994Z,29.13
2018-03-27T02:22:02.061Z,33.33
2018-03-27T02:24:30.475Z,30.70
2018-03-27T02:26:58.117Z,33.30
2018-03-27T02:29:25.720Z,33.33
2018-03-27T02:31:53.352Z,34.10
2018-03-27T02:34:20.951Z,34.13
2018-03-27T02:36:48.583Z,34.87
2018-03-27T02:39:16.178Z,29.00
2018-03-27T02:41:44.665Z,30.73
2018-03-27T02:44:12.283Z,26.30
2018-03-27T02:46:39.913Z,30.93
2018-03-27T02:49:07.500Z,35.00
2018-03-27T02:51:35.197Z,33.10
2018-03-27T02:54:02.804Z,31.07
2018-03-27T02:56:30.449Z,28.37
2018-03-27T02:58:58.060Z,31.47
2018-03-27T03:01:25.733Z,30.57
2018-03-27T03:03:53.386Z,31.77
2018-03-27T03:06:20.995Z,30.20
2018-03-27T03:08:48.615Z,30.00
2018-03-27T03:11:16.314Z,30.33
2018-03-27T03:13:44.038Z,29.60
2018-03-27T03:16:11.620Z,28.53
2018-03-27T03:18:39.252Z,36.80
2018-03-27T03:21:06.846Z,32.90
2018-03-27T03:23:34.470Z,32.83
2018-03-27T03:26:02.065Z,30.30
2018-03-27T03:28:29.686Z,37.50
2018-03-27T03:30:57.284Z,33.40
2018-03-27T03:33:24.918Z,33.57
2018-03-27T03:35:52.533Z,32.47
2018-03-27T03:38:20.169Z,32.80
2018-03-27T03:40:47.877Z,31.60
2018-03-27T03:43:15.499Z,34.43
2018-03-27T03:45:43.112Z,34.00
2018-03-27T03:48:10.856Z,35.23
2018-03-27T03:50:38.490Z,35.70
2018-03-27T03:53:06.213Z,34.37
2018-03-27T03:55:33.795Z,37.67
2018-03-27T03:58:01.441Z,49.07
2018-03-27T04:00:29.153Z,31.30
2018-03-27T04:02:56.740Z,41.77
2018-03-27T04:05:24.452Z,41.57
2018-03-27T04:07:52.051Z,36.00
2018-03-27T04:10:19.745Z,32.43
2018-03-27T04:12:47.390Z,35.80
2018-03-27T04:15:15.063Z,30.50
2018-03-27T04:17:42.676Z,34.23
2018-03-27T04:20:10.303Z,33.93
2018-03-27T04:22:37.892Z,31.00
2018-03-27T04:25:05.571Z,32.70
2018-03-27T04:27:33.171Z,37.67
2018-03-27T04:30:00.872Z,36.43
2018-03-27T04:32:28.509Z,33.23
2018-03-27T04:34:56.155Z,34.27
2018-03-27T04:37:23.827Z,40.47
2018-03-27T04:39:51.479Z,41.17
2018-03-27T04:42:19.086Z,35.03
2018-03-27T04:44:46.707Z,39.13
2018-03-27T04:47:14.317Z,35.60
2018-03-27T04:49:41.961Z,36.80
2018-03-27T04:52:09.623Z,31.20
2018-03-27T04:54:37.244Z,40.60
2018-03-27T04:57:04.836Z,52.43
2018-03-27T04:59:32.479Z,40.87
2018-03-27T05:02:00.065Z,45.13
2018-03-27T05:04:27.712Z,38.30
2018-03-27T05:06:55.371Z,44.30
2018-03-27T05:09:22.980Z,52.80
2018-03-27T05:11:50.602Z,54.47
2018-03-27T05:14:18.213Z,59.80
2018-03-27T05:16:45.850Z,59.00
2018-03-27T05:19:13.499Z,50.57
2018-03-27T05:21:41.190Z,61.10
2018-03-27T05:24:08.863Z,72.07
2018-03-27T05:26:36.520Z,71.10
2018-03-27T05:29:04.180Z,71.10
2018-03-27T05:31:31.875Z,64.60
2018-03-27T05:33:59.540Z,67.60
2018-03-27T05:36:27.273Z,61.73
2018-03-27T05:38:54.904Z,72.20
2018-03-27T05:41:22.566Z,80.77
2018-03-27T05:43:50.184Z,68.80
2018-03-27T05:46:17.905Z,75.47
2018-03-27T05:48:45.582Z,67.07
2018-03-27T05:51:13.272Z,59.70
2018-03-27T05:53:40.950Z,69.70
2018-03-27T05:56:08.614Z,63.23
2018-03-27T05:58:36.291Z,60.97
2018-03-27T06:01:04.025Z,60.30
2018-03-27T06:03:31.666Z,85.70
2018-03-27T06:05:59.320Z,76.63
2018-03-27T06:08:28.008Z,84.30
2018-03-27T06:10:55.635Z,65.67
2018-03-27T06:13:23.343Z,74.53
2018-03-27T06:15:51.000Z,80.30
2018-03-27T06:18:18.693Z,69.27
2018-03-27T06:20:46.381Z,95.40
2018-03-27T06:23:14.674Z,84.60
2018-03-27T06:25:42.286Z,74.80
2018-03-27T06:30:47.726Z,83.10
2018-03-27T06:33:15.399Z,93.80
2018-03-27T06:35:43.025Z,79.23
2018-03-27T06:38:10.706Z,77.63
2018-03-27T06:40:38.377Z,83.53
2018-03-27T06:43:06.087Z,75.03
2018-03-27T06:45:33.713Z,87.50
2018-03-27T06:48:01.398Z,78.10
2018-03-27T06:50:30.092Z,85.03
2018-03-27T06:52:57.791Z,75.03
2018-03-27T06:55:25.475Z,71.10
2018-03-27T06:57:53.201Z,73.63
2018-03-27T07:00:20.860Z,70.13
2018-03-27T07:02:48.618Z,67.83
2018-03-27T07:05:16.306Z,67.97
2018-03-27T07:07:44.048Z,67.10
2018-03-27T07:10:11.746Z,76.23
2018-03-27T07:12:39.466Z,64.90
2018-03-27T07:15:07.179Z,61.73
2018-03-27T07:17:34.906Z,64.00
2018-03-27T07:20:02.594Z,64.17
2018-03-27T07:22:30.276Z,72.87
2018-03-27T07:24:57.931Z,70.77
2018-03-27T07:27:26.475Z,80.77
2018-03-27T07:29:54.144Z,73.30
2018-03-27T07:32:21.836Z,64.53
2018-03-27T07:34:49.554Z,67.70
2018-03-27T07:37:17.211Z,63.87
2018-03-27T07:39:44.848Z,67.47
2018-03-27T07:42:12.473Z,58.97
2018-03-27T07:44:40.116Z,61.53
2018-03-27T07:47:07.741Z,58.53
2018-03-27T07:49:35.423Z,60.37
2018-03-27T07:52:03.030Z,61.70
2018-03-27T07:54:30.769Z,55.63
2018-03-27T07:56:59.398Z,65.13
2018-03-27T07:59:27.107Z,60.80
2018-03-27T08:01:54.740Z,55.90
2018-03-27T08:04:22.388Z,52.63
2018-03-27T08:06:50.070Z,53.40
2018-03-27T08:09:17.710Z,57.90
2018-03-27T08:11:45.371Z,50.17
2018-03-27T08:14:13.066Z,50.47
2018-03-27T08:16:40.854Z,46.33
2018-03-27T08:19:08.471Z,50.50
2018-03-27T08:21:36.144Z,50.63
2018-03-27T08:24:03.936Z,48.87
2018-03-27T08:26:31.573Z,48.67
2018-03-27T08:28:59.282Z,43.63
2018-03-27T08:31:27.821Z,48.40
2018-03-27T08:33:55.586Z,48.87
2018-03-27T08:36:23.342Z,48.57
2018-03-27T08:38:51.010Z,44.40
2018-03-27T08:41:18.700Z,45.47
2018-03-27T08:43:46.379Z,45.73
2018-03-27T08:46:14.880Z,45.83
2018-03-27T08:48:42.637Z,55.00
2018-03-27T08:51:10.350Z,44.87
2018-03-27T08:53:38.030Z,41.03
2018-03-27T08:56:05.745Z,33.50
2018-03-27T08:58:33.431Z,35.73
2018-03-27T09:01:01.148Z,35.73
2018-03-27T09:03:28.816Z,29.90
2018-03-27T09:05:56.533Z,29.20
2018-03-27T09:08:25.009Z,27.10
2018-03-27T09:10:52.743Z,25.27
2018-03-27T09:13:20.469Z,25.83
2018-03-27T09:15:48.183Z,26.93
2018-03-27T09:18:16.698Z,27.07
2018-03-27T09:20:44.404Z,23.20
2018-03-27T09:23:12.083Z,20.83
2018-03-27T09:25:39.786Z,18.40
2018-03-27T09:28:07.476Z,24.80
2018-03-27T09:30:35.196Z,23.40
2018-03-27T09:33:02.855Z,16.80
2018-03-27T09:35:30.582Z,23.57
2018-03-27T09:37:58.242Z,17.07
2018-03-27T09:40:25.946Z,17.73
2018-03-27T09:42:53.638Z,19.20
2018-03-27T09:45:21.366Z,18.80
2018-03-27T09:47:49.035Z,19.57
2018-03-27T09:50:16.670Z,21.03
2018-03-27T09:52:44.419Z,18.33
2018-03-27T09:55:12.091Z,21.50
2018-03-27T09:57:39.776Z,24.37
2018-03-27T10:00:07.472Z,19.17
2018-03-27T10:02:35.112Z,19.13
2018-03-27T10:05:02.752Z,18.53
2018-03-27T10:07:30.489Z,18.27
2018-03-27T10:09:58.181Z,17.03
2018-03-27T10:12:25.906Z,18.50
2018-03-27T10:14:53.501Z,17.10
2018-03-27T10:17:21.199Z,18.10
2018-03-27T10:19:48.885Z,21.90
2018-03-27T10:22:16.512Z,19.90
2018-03-27T10:24:44.459Z,19.73
2018-03-27T10:27:12.951Z,19.50
2018-03-27T10:29:42.788Z,19.13
2018-03-27T10:32:11.258Z,15.20
2018-03-27T10:34:39.961Z,15.07
2018-03-27T10:37:08.728Z,19.90
2018-03-27T10:39:37.549Z,16.53
2018-03-27T10:42:05.469Z,16.90
2018-03-27T10:44:34.109Z,11.50
2018-03-27T10:47:03.009Z,17.37
2018-03-27T10:49:31.038Z,13.20
2018-03-27T10:51:59.838Z,14.23
2018-03-27T10:54:28.373Z,15.60
2018-03-27T10:56:57.078Z,16.40
2018-03-27T10:59:25.539Z,15.50
2018-03-27T11:01:53.731Z,16.30
2018-03-27T11:04:22.328Z,11.97
2018-03-27T11:06:50.404Z,12.73
2018-03-27T11:09:18.491Z,9.80
2018-03-27T11:11:47.202Z,12.80
2018-03-27T11:14:15.567Z,10.47
2018-03-27T11:16:43.212Z,12.10
2018-03-27T11:19:10.881Z,11.07
2018-03-27T11:21:38.577Z,11.30
2018-03-27T11:24:06.299Z,10.47
2018-03-27T11:26:34.380Z,9.50
2018-03-27T11:29:02.085Z,10.23
2018-03-27T11:31:29.771Z,5.63
2018-03-27T11:33:57.426Z,10.87
2018-03-27T11:36:25.029Z,8.23
2018-03-27T11:38:52.653Z,7.30
2018-03-27T11:41:20.312Z,9.03
2018-03-27T11:43:48.247Z,9.63
2018-03-27T11:46:16.006Z,11.30
2018-03-27T11:48:43.650Z,9.97
2018-03-27T11:51:11.351Z,10.90
2018-03-27T11:53:39.008Z,10.40
2018-03-27T11:56:06.676Z,8.20
2018-03-27T11:58:34.453Z,7.83
2018-03-27T12:01:02.078Z,8.13
2018-03-27T12:03:29.763Z,9.80
2018-03-27T12:05:57.449Z,12.07
2018-03-27T12:08:25.185Z,11.90
2018-03-27T12:10:52.802Z,12.77
2018-03-27T12:13:20.508Z,11.17
2018-03-27T12:15:48.172Z,10.50
2018-03-27T12:18:15.829Z,15.20
2018-03-27T12:20:43.482Z,10.40
2018-03-27T12:23:11.153Z,9.97
2018-03-27T12:25:38.843Z,12.80
2018-03-27T12:28:06.507Z,10.67
2018-03-27T12:30:34.212Z,11.40
2018-03-27T12:33:01.935Z,13.40
2018-03-27T12:35:29.725Z,12.13
2018-03-27T12:37:58.275Z,9.50
2018-03-27T12:40:25.965Z,9.37
2018-03-27T12:42:53.686Z,10.90
2018-03-27T12:45:22.346Z,9.70
2018-03-27T12:47:50.024Z,11.87
2018-03-27T12:50:18.773Z,8.93
2018-03-27T12:52:46.405Z,8.43
2018-03-27T12:55:14.134Z,12.63
2018-03-27T12:57:41.811Z,10.90
2018-03-27T13:00:09.460Z,11.67
2018-03-27T13:02:37.091Z,11.47
2018-03-27T13:05:04.742Z,12.43
2018-03-27T13:07:32.384Z,9.87
2018-03-27T13:10:00.089Z,11.53
2018-03-27T13:12:27.759Z,9.90
2018-03-27T13:14:55.448Z,11.87
2018-03-27T13:17:23.147Z,11.10
2018-03-27T13:19:50.840Z,10.30
2018-03-27T13:22:18.516Z,7.83
2018-03-27T13:24:46.149Z,10.23
2018-03-27T13:27:13.838Z,10.33
2018-03-27T13:29:41.514Z,10.17
2018-03-27T13:32:09.240Z,9.20
2018-03-27T13:34:36.890Z,11.30
2018-03-27T13:37:04.612Z,10.30
2018-03-27T13:39:32.247Z,9.17
2018-03-27T13:41:59.920Z,9.07
2018-03-27T13:44:27.572Z,10.57
2018-03-27T13:46:55.286Z,9.13
2018-03-27T13:49:23.004Z,9.93
2018-03-27T13:51:50.721Z,12.93
2018-03-27T13:54:18.424Z,8.17
2018-03-27T13:56:46.129Z,8.00
2018-03-27T13:59:13.791Z,8.57
2018-03-27T14:01:42.267Z,8.43
2018-03-27T14:04:09.885Z,19.87
2018-03-27T14:06:37.614Z,10.57
2018-03-27T14:09:06.158Z,8.90
2018-03-27T14:11:33.868Z,14.70
2018-03-27T14:14:01.537Z,10.10
2018-03-27T14:16:29.204Z,12.17
2018-03-27T14:18:56.857Z,10.77
2018-03-27T14:21:24.491Z,13.17
2018-03-27T14:23:52.219Z,12.03
2018-03-27T14:26:19.887Z,11.40
2018-03-27T14:28:47.595Z,14.53
2018-03-27T14:31:15.277Z,11.33
2018-03-27T14:33:42.921Z,12.07
2018-03-27T14:36:10.627Z,8.83
2018-03-27T14:38:38.310Z,9.03
2018-03-27T14:41:06.798Z,9.60
2018-03-27T14:43:34.529Z,9.20
2018-03-27T14:46:02.245Z,7.17
2018-03-27T14:48:29.985Z,7.47
2018-03-27T14:50:57.648Z,9.27
2018-03-27T14:53:26.356Z,9.27
2018-03-27T14:55:54.014Z,9.07
2018-03-27T14:58:21.668Z,10.10
2018-03-27T15:00:49.343Z,7.87
2018-03-27T15:03:17.051Z,8.40
2018-03-27T15:05:44.731Z,11.30
2018-03-27T15:08:12.386Z,10.53
2018-03-27T15:10:40.047Z,10.10
2018-03-27T15:13:08.594Z,10.20
2018-03-27T15:15:36.268Z,9.80
2018-03-27T15:18:03.975Z,11.67
2018-03-27T15:20:31.600Z,10.70
2018-03-27T15:23:00.223Z,8.70
2018-03-27T15:25:27.884Z,7.80
2018-03-27T15:27:55.637Z,8.50
2018-03-27T15:30:23.290Z,8.07
2018-03-27T15:32:50.919Z,8.00
2018-03-27T15:35:18.533Z,7.40
2018-03-27T15:37:46.205Z,9.40
2018-03-27T15:40:13.931Z,6.63
2018-03-27T15:42:41.523Z,6.43
2018-03-27T15:45:09.241Z,5.57
2018-03-27T15:47:36.850Z,7.07
2018-03-27T15:50:04.583Z,7.07
2018-03-27T15:52:32.249Z,6.80
2018-03-27T15:54:59.961Z,7.10
2018-03-27T15:57:27.620Z,7.70
2018-03-27T15:59:55.296Z,8.00
2018-03-27T16:02:22.928Z,6.37
2018-03-27T16:04:50.570Z,6.20
2018-03-27T16:07:18.202Z,6.63
2018-03-27T16:09:45.851Z,6.17
2018-03-27T16:12:13.522Z,5.17
2018-03-27T16:14:41.227Z,6.37
2018-03-27T16:17:08.899Z,5.73
2018-03-27T16:19:36.826Z,8.20
2018-03-27T16:22:04.472Z,7.93
2018-03-27T16:24:32.157Z,6.17
2018-03-27T16:27:00.639Z,8.37
2018-03-27T16:29:28.345Z,7.97
2018-03-27T16:31:56.063Z,7.30
2018-03-27T16:34:23.694Z,8.03
2018-03-27T16:36:51.351Z,6.40
2018-03-27T16:39:19.005Z,7.20
2018-03-27T16:41:46.669Z,6.50
2018-03-27T16:44:14.331Z,8.20
2018-03-27T16:46:42.002Z,7.40
2018-03-27T16:49:09.715Z,7.30
2018-03-27T16:51:37.372Z,7.73
2018-03-27T16:54:04.969Z,7.10
2018-03-27T16:56:32.658Z,6.40
2018-03-27T16:59:00.310Z,5.53
2018-03-27T17:01:27.994Z,7.53
2018-03-27T17:03:55.575Z,5.47
2018-03-27T17:06:23.276Z,6.37
2018-03-27T17:08:50.883Z,6.53
2018-03-27T17:11:18.572Z,5.37
2018-03-27T17:13:46.176Z,6.40
2018-03-27T17:16:13.831Z,7.07
2018-03-27T17:18:41.522Z,6.50
2018-03-27T17:21:09.168Z,5.17
2018-03-27T17:23:36.840Z,7.70
2018-03-27T17:26:04.500Z,6.60
2018-03-27T17:28:32.091Z,5.27
2018-03-27T17:30:59.744Z,5.57
2018-03-27T17:33:27.371Z,6.93
2018-03-27T17:35:55.159Z,11.17
2018-03-27T17:38:22.780Z,6.97
2018-03-27T17:40:50.476Z,5.97
2018-03-27T17:43:18.069Z,6.20
2018-03-27T17:45:45.733Z,7.23
2018-03-27T17:48:13.326Z,6.67
2018-03-27T17:50:40.937Z,6.70
2018-03-27T17:53:08.581Z,10.60
2018-03-27T17:55:36.232Z,7.87
2018-03-27T17:58:03.949Z,8.43
2018-03-27T18:00:31.601Z,7.43
2018-03-27T18:02:59.252Z,9.10
2018-03-27T18:05:26.840Z,7.67
2018-03-27T18:07:54.509Z,8.40
2018-03-27T18:10:22.105Z,8.03
2018-03-27T18:12:49.763Z,8.10
2018-03-27T18:15:17.355Z,7.90
2018-03-27T18:17:44.980Z,8.40
2018-03-27T18:20:12.570Z,8.63
2018-03-27T18:22:40.338Z,8.17
2018-03-27T18:25:07.947Z,8.67
2018-03-27T18:27:37.269Z,8.33
2018-03-27T18:30:05.531Z,8.20
2018-03-27T18:32:33.185Z,7.33
2018-03-27T18:35:00.793Z,11.43
2018-03-27T18:37:28.429Z,9.00
2018-03-27T18:39:56.033Z,9.90
2018-03-27T18:42:23.674Z,10.50
2018-03-27T18:44:51.303Z,10.40
2018-03-27T18:47:18.951Z,9.40
2018-03-27T18:49:46.542Z,8.23
2018-03-27T18:52:14.182Z,8.80
2018-03-27T18:54:41.799Z,7.37
2018-03-27T18:57:09.492Z,8.33
2018-03-27T18:59:37.100Z,10.27
2018-03-27T19:02:04.773Z,9.77
2018-03-27T19:04:32.423Z,10.93
2018-03-27T19:07:00.101Z,10.97
2018-03-27T19:09:27.770Z,10.23
2018-03-27T19:11:55.412Z,12.83
2018-03-27T19:14:23.095Z,13.20
2018-03-27T19:16:50.733Z,12.40
2018-03-27T19:19:18.413Z,11.43
2018-03-27T19:21:46.035Z,12.37
2018-03-27T19:24:13.656Z,12.03
2018-03-27T19:26:41.281Z,12.73
2018-03-27T19:29:08.898Z,15.20
2018-03-27T19:31:36.500Z,12.63
2018-03-27T19:34:04.164Z,12.23
2018-03-27T19:36:31.762Z,12.07
2018-03-27T19:38:59.415Z,14.50
2018-03-27T19:41:27.037Z,12.67
2018-03-27T19:43:54.673Z,13.67
2018-03-27T19:46:22.283Z,13.30
2018-03-27T19:48:49.987Z,14.10
2018-03-27T19:51:17.629Z,13.77
2018-03-27T19:53:45.248Z,14.83
2018-03-27T19:56:12.885Z,14.30
2018-03-27T19:58:40.529Z,13.10
2018-03-27T20:01:08.152Z,12.47
2018-03-27T20:03:35.818Z,13.97
2018-03-27T20:06:03.522Z,15.93
2018-03-27T20:08:31.138Z,14.93
2018-03-27T20:10:58.786Z,15.17
2018-03-27T20:13:26.448Z,16.43
2018-03-27T20:15:54.093Z,13.80
2018-03-27T20:18:21.817Z,13.67
2018-03-27T20:20:49.528Z,13.43
2018-03-27T20:23:17.157Z,13.70
2018-03-27T20:25:44.809Z,14.67
2018-03-27T20:28:12.528Z,14.83
2018-03-27T20:30:40.147Z,15.47
2018-03-27T20:33:07.830Z,14.80
2018-03-27T20:35:35.497Z,14.10
2018-03-27T20:38:22.858Z,16.07
2018-03-27T20:40:50.678Z,16.43
2018-03-27T20:43:18.289Z,15.23
2018-03-27T20:45:45.951Z,15.20
2018-03-27T20:48:13.578Z,13.80
2018-03-27T20:50:41.317Z,16.03
2018-03-27T20:53:08.956Z,13.23
2018-03-27T20:55:36.728Z,14.00
2018-03-27T20:58:04.361Z,16.10
2018-03-27T21:00:32.021Z,12.03
2018-03-27T21:02:59.698Z,17.23
2018-03-27T21:05:27.451Z,14.00
2018-03-27T21:07:55.081Z,12.50
2018-03-27T21:10:22.780Z,16.20
2018-03-27T21:12:51.324Z,16.90
2018-03-27T21:15:18.951Z,14.20
2018-03-27T21:17:46.616Z,13.73
2018-03-27T21:20:14.256Z,13.13
2018-03-27T21:22:41.961Z,12.70
2018-03-27T21:25:09.593Z,13.63
2018-03-27T21:27:37.304Z,13.00
2018-03-27T21:30:04.988Z,14.20
2018-03-27T21:32:32.641Z,14.13
2018-03-27T21:35:00.282Z,11.23
2018-03-27T21:37:27.948Z,13.50
2018-03-27T21:39:55.545Z,14.53
2018-03-27T21:42:23.217Z,14.20
2018-03-27T21:44:50.839Z,13.00
2018-03-27T21:47:18.479Z,13.90
2018-03-27T21:49:46.198Z,13.57
2018-03-27T21:52:13.829Z,13.00
2018-03-27T21:54:41.502Z,13.40
2018-03-27T21:57:09.122Z,14.60
2018-03-27T21:59:36.766Z,11.83
2018-03-27T22:02:04.441Z,14.40
2018-03-27T22:04:32.204Z,10.47
2018-03-27T22:06:59.827Z,12.10
2018-03-27T22:09:27.495Z,12.10
2018-03-27T22:11:55.117Z,12.13
2018-03-27T22:14:22.781Z,13.83
2018-03-27T22:16:50.380Z,11.60
2018-03-27T22:19:18.010Z,10.63
2018-03-27T22:21:45.642Z,13.30
2018-03-27T22:24:13.305Z,9.93
2018-03-27T22:26:40.941Z,11.00
2018-03-27T22:29:08.629Z,10.20
2018-03-27T22:31:36.375Z,10.47
2018-03-27T22:34:04.049Z,12.90
2018-03-27T22:36:31.688Z,10.87
2018-03-27T22:38:59.347Z,11.90
2018-03-27T22:41:27.074Z,10.47
2018-03-27T22:43:54.728Z,10.57
2018-03-27T22:46:22.375Z,11.33
2018-03-27T22:48:50.125Z,9.37
2018-03-27T22:51:17.715Z,14.80
2018-03-27T22:53:45.385Z,13.73
2018-03-27T22:56:13.032Z,10.83
2018-03-27T22:58:40.688Z,10.70
2018-03-27T23:01:08.812Z,11.90
2018-03-27T23:15:28.010Z,13.17
2018-03-27T23:17:55.726Z,11.00
2018-03-27T23:32:52.556Z,10.80
2018-03-27T23:38:29.753Z,10.50
2018-03-27T23:40:57.488Z,12.27
2018-03-27T23:43:25.182Z,9.60
2018-03-27T23:45:52.854Z,8.93
2018-03-27T23:48:20.533Z,10.80
2018-03-27T23:50:48.170Z,12.77
2018-03-27T23:53:15.870Z,12.87
2018-03-27T23:55:43.502Z,12.00
2018-03-27T23:58:11.206Z,11.70
